Airfield :
LOGIN :

Register | Disclaimer

   EN    FR    IT 

 










Legend :    VFR   Marginal VFR   IFR   Intensive IFR   Very Intensive IFR
Visi :
Ceiling :
>= 8 km
>= 3000ft
5 to 8 km
1000 to 3000 ft
1500m to 5 km
500 to 1000 ft
800 to 1500m
200 to 500 ft
< 800m
< 200 ft
Symbols :   Thunderstorms  Fog  Heavy snow  Heavy precipitations  Wind > 20 kt
SIGMETs :     Misc.  Thunderstorms  Icing  Turbulence  Mountain Waves  Volcanic Ashes






- Airport Elevation : 86 ft


LERT - Rota Navy

CURRENT METAR :
  • 061830Z 20003KT CAVOK 13/11 Q1019 NOSIG

EXPIRED METARs :
  • 061800Z 19005KT CAVOK 14/11 Q1019 NOSIG
  • 061730Z 19005KT 150V220 CAVOK 15/12 Q1019 NOSIG
  • 061700Z 20007KT 160V230 CAVOK 16/12 Q1019 NOSIG
  • 061630Z 19006KT 150V230 CAVOK 16/11 Q1019 NOSIG
  • 061600Z 20008KT 170V240 CAVOK 16/11 Q1019 NOSIG

TAF TAF LERT
Valid from the 06 at 15:00 until the 07 at 15:00 UTC


061400Z 0615/0715 24008KT 9999 FEW030 TX18/0615Z TN07/0707Z
BECMG 0620/0622 13010KT
BECMG 0704/0706 05006KT
BECMG 0711/0713 15010KT



MET'MAP, your aeronautical weather chart ! - Copyright ORBIFLY December 2007 - Disclaimer

ORBIFLY MET'MAP TEAM :

Programming & Development : Alexandra Zaïnal
Original concept : Baudouin d'Aumeries
Technical & hardware support : Manuel Goepfert
Assistance : Marc-Olivier Méhu




SOURCES & CREDITS :

   NOAA